Ridgewood, South Carolina
Current Conditions -  °F | °C
As of 5:53 PM on Thursday 18 Dec 2014 (Local Time) from KCUB Reporting Station
Clear Clear  
Wind Chill: 51°   Ceiling: Unl
Heat Index: 51°   Visibility: 10mi
Dew Point: 37°   Wind: 0mph
Humidity: 59%   Direction: NA
Pressure: 30.09"   Gusts: NA
Location:  34.1179°N, 81.0612°W
Report Text: KCUB 182253Z AUTO 00000KT 10SM CLR 11/03 A3009 RMK AO2 SLP190 T01060028
Loading
Personal Weather Stations






























Interactive Weather Map New forecast layout! Learn more

10-Day Weather Forecast

Advertisements
Track Severe Weather on mobile